Startpagina
METAR-TAF:

METAR-TAF

Vliegvelden :

Aeropuerto Juan Mendoza

Oruro, Bolivia

breedte: 17-58S, lengte: 067-04W, hoogte: 3072 m

Actueel weer

Dit bericht is 55 minuten geleden gemaakt, om 16:00 UTC
Wind 3 kt uit het noorden
Temperatuur 11°C
Vochtigheid 43%
Druk 1038 hPa
Zicht 10 km of meer
Weinig wolken op 1700 ft

METAR: SLOR 261600Z 36003KT 9999 FEW017 11/M01 Q1038

Tijdstip: 12:55 (16:55 UTC)

Verwachting

Dit bericht is 6 uur en het 40 minuten geleden gemaakt, om 10:15 UTC
Verwachting geldig van 26 om 12 UTC tot 27 om 12 UTC
Wind 5 kt uit het noorden
Zicht 10 km of meer
Weinig wolken op 1500 ft
Wijzigt naar
van 26 om 17 UTC tot 26 om 21 UTC
Wind 12 kt uit het zuiden
Wijzigt naar
van 26 om 23 UTC tot 27 om 01 UTC
Wind 5 kt uit het noordoosten

TAF: SLOR 261015Z 2612/2712 35005KT 9999 FEW015 TX17/2619Z TNM04/2711Z BECMG 2617/2621 18012KT BECMG 2623/2701 04005KT

Waarnemingen en weersverwachtingen van meer dan 4000 vliegvelden (METAR en TAF).

De beschikbare stations zijn de gele en rode punten op de kaart.

Ga met uw muis naar het station om de naam te zien.

Klik dan om waarnemingen en weersverwachtingen te zien.

kaart wijzigen: klik op de groene knoppen met een zwart kruis om in te zoomen, op de groene knop met een streepje om uit te zoomen of op de groene pijlen voor aangrenzende kaarten.


METAR-TAF: